Time;durP1;ratioP1;P1;durP2;ratioP2;P2;SDS_P1;SDS_P2;PMS_P1;PMS_P2;Temp;Humidity;BMP_temperature;BMP_pressure;BME280_temperature;BME280_humidity;BME280_pressure;Samples;Min_cycle;Max_cycle;Signal;HPM_P1;HPM_P2
2021/05/13 00:00:35;;;;;;;6.20;1.67;;;;;;;16.05;43.33;99423.02;1788810;78;25628;-71
2021/05/13 00:03:00;;;;;;;5.65;1.75;;;;;;;16.09;43.39;99439.46;1787656;78;33393;-72
2021/05/13 00:05:26;;;;;;;8.40;2.80;;;;;;;16.03;43.44;99433.77;1789835;78;31154;-72
2021/05/13 00:07:52;;;;;;;9.85;1.35;;;;;;;15.96;43.53;99430.44;1790001;78;35238;-72
2021/05/13 00:10:20;;;;;;;3.00;1.45;;;;;;;15.93;43.75;99426.91;1788281;78;32440;-71
2021/05/13 00:13:01;;;;;;;2.25;1.22;;;;;;;15.88;43.73;99424.95;1784983;78;25688;-71
2021/05/13 00:15:41;;;;;;;7.47;1.98;;;;;;;15.86;43.87;99428.84;1784014;78;25638;-72
2021/05/13 00:18:08;;;;;;;5.87;1.85;;;;;;;15.81;43.96;99428.70;1788674;78;25192;-71
2021/05/13 00:20:41;;;;;;;2.25;1.40;;;;;;;15.76;44.10;99431.47;1786690;78;25557;-71
2021/05/13 00:23:07;;;;;;;9.53;1.77;;;;;;;15.68;44.13;99430.45;1766045;78;25812;-72
2021/05/13 00:25:33;;;;;;;4.30;1.30;;;;;;;15.62;44.29;99431.31;1786605;78;25757;-72
2021/05/13 00:27:59;;;;;;;7.47;1.77;;;;;;;15.58;44.48;99435.92;1793145;78;25615;-74
2021/05/13 00:30:25;;;;;;;5.65;1.60;;;;;;;15.52;44.70;99436.29;1757601;78;31156;-74
2021/05/13 00:32:51;;;;;;;5.97;1.98;;;;;;;15.45;44.79;99432.42;1788785;78;34756;-74
2021/05/13 00:35:18;;;;;;;8.05;1.55;;;;;;;15.39;44.90;99434.63;1787272;78;25589;-73
2021/05/13 00:37:45;;;;;;;5.78;1.60;;;;;;;15.32;45.07;99429.41;1787769;78;25565;-72
2021/05/13 00:40:14;;;;;;;4.58;1.57;;;;;;;15.30;45.12;99422.76;1789974;78;25553;-72
2021/05/13 00:42:39;;;;;;;7.47;1.70;;;;;;;15.23;45.31;99424.67;1787515;78;25465;-72
2021/05/13 00:45:09;;;;;;;2.75;1.60;;;;;;;15.21;45.44;99426.71;1783971;78;34964;-72
2021/05/13 00:47:37;;;;;;;4.42;1.80;;;;;;;15.19;45.52;99421.66;1787436;78;25189;-73
2021/05/13 00:50:06;;;;;;;3.85;1.65;;;;;;;15.16;45.60;99418.14;1790943;78;27013;-72
2021/05/13 00:52:33;;;;;;;9.57;1.60;;;;;;;15.15;45.69;99419.69;1792202;78;25185;-72
2021/05/13 00:55:00;;;;;;;7.25;1.77;;;;;;;15.12;45.82;99418.30;1791999;78;25638;-73
2021/05/13 00:57:26;;;;;;;7.90;1.70;;;;;;;15.07;45.92;99422.09;1784967;78;25478;-73
2021/05/13 00:59:56;;;;;;;6.10;1.65;;;;;;;15.03;46.01;99423.53;1791174;78;25527;-72
2021/05/13 01:02:20;;;;;;;6.45;1.85;;;;;;;14.96;46.15;99426.75;1785136;78;25536;-72
2021/05/13 01:04:46;;;;;;;5.10;1.72;;;;;;;14.94;46.28;99426.16;1786538;78;33248;-72
2021/05/13 01:07:12;;;;;;;6.33;1.85;;;;;;;14.92;46.34;99422.41;1777620;78;31210;-74
2021/05/13 01:09:38;;;;;;;5.08;1.50;;;;;;;14.91;46.48;99419.50;1786058;78;25393;-74
2021/05/13 01:12:11;;;;;;;6.03;1.65;;;;;;;14.90;46.55;99419.22;1788269;78;32312;-74
2021/05/13 01:19:46;;;;;;;3.08;1.60;;;;;;;14.87;46.74;99411.77;1789919;78;25542;-73
2021/05/13 01:22:13;;;;;;;2.27;1.65;;;;;;;14.83;46.76;99408.73;1789839;78;25188;-73
2021/05/13 01:24:40;;;;;;;2.40;1.60;;;;;;;14.76;46.90;99405.38;1786372;78;25623;-73
2021/05/13 01:27:07;;;;;;;2.95;1.60;;;;;;;14.68;47.10;99400.88;1790811;78;25646;-73
2021/05/13 01:29:33;;;;;;;5.15;1.37;;;;;;;14.64;47.20;99396.56;1788442;78;25634;-73
2021/05/13 01:32:00;;;;;;;2.62;1.35;;;;;;;14.60;47.26;99400.14;1791713;78;25648;-73
2021/05/13 01:34:27;;;;;;;2.90;1.30;;;;;;;14.57;47.39;99395.83;1789190;78;25499;-73
2021/05/13 01:36:52;;;;;;;4.33;1.30;;;;;;;14.53;47.49;99390.17;1785142;78;25168;-73
2021/05/13 01:39:19;;;;;;;2.52;1.40;;;;;;;14.51;47.64;99382.17;1788621;78;25548;-73
2021/05/13 01:41:46;;;;;;;3.87;1.45;;;;;;;14.44;47.68;99378.30;1791015;78;25582;-73
2021/05/13 01:44:13;;;;;;;3.12;1.45;;;;;;;14.40;47.84;99370.53;1790405;78;25192;-73
2021/05/13 01:46:39;;;;;;;5.40;1.60;;;;;;;14.39;47.95;99365.78;1788676;78;25173;-74
2021/05/13 01:49:08;;;;;;;5.03;1.57;;;;;;;14.37;48.02;99366.50;1789231;78;32290;-74
2021/05/13 01:51:33;;;;;;;6.80;1.85;;;;;;;14.37;48.16;99365.70;1787621;78;25739;-72
2021/05/13 01:53:59;;;;;;;5.08;1.57;;;;;;;14.35;48.21;99365.93;1783470;78;32744;-72
2021/05/13 01:56:25;;;;;;;2.92;1.77;;;;;;;14.31;48.29;99359.99;1790848;78;31172;-72
2021/05/13 01:58:51;;;;;;;2.02;1.25;;;;;;;14.25;48.29;99348.52;1755367;78;34666;-72
2021/05/13 02:01:17;;;;;;;3.90;1.75;;;;;;;14.25;48.29;99348.52;1782309;78;25717;-74
2021/05/13 02:03:44;;;;;;;4.60;1.60;;;;;;;14.21;48.44;99347.31;1785907;78;26322;-75
2021/05/13 02:06:12;;;;;;;4.37;1.70;;;;;;;14.17;48.64;99345.63;1791461;78;25184;-74
2021/05/13 02:08:38;;;;;;;6.87;1.72;;;;;;;14.13;48.68;99344.46;1786762;78;25208;-74
2021/05/13 02:11:04;;;;;;;4.35;1.80;;;;;;;14.07;48.80;99338.72;1787766;78;34642;-74
2021/05/13 02:13:30;;;;;;;2.35;1.50;;;;;;;14.07;48.97;99337.92;1785522;78;25488;-73
2021/05/13 02:15:56;;;;;;;6.92;1.70;;;;;;;14.06;49.04;99338.95;1788675;78;26202;-73
2021/05/13 02:18:21;;;;;;;5.95;1.40;;;;;;;14.04;49.10;99338.35;1788376;78;32801;-72
2021/05/13 02:20:48;;;;;;;7.33;1.90;;;;;;;14.00;49.19;99335.35;1784857;78;31142;-72
2021/05/13 02:23:15;;;;;;;4.47;1.95;;;;;;;13.97;49.29;99334.47;1791226;78;25150;-72
2021/05/13 02:25:46;;;;;;;3.80;1.62;;;;;;;13.94;49.33;99328.30;1786068;78;25201;-73
2021/05/13 02:28:12;;;;;;;2.35;1.55;;;;;;;13.91;49.45;99328.23;1786925;78;25664;-72
2021/05/13 02:30:38;;;;;;;5.87;1.30;;;;;;;13.89;49.55;99318.96;1784391;78;25193;-72
2021/05/13 02:33:05;;;;;;;2.65;1.60;;;;;;;13.85;49.56;99314.62;1788802;78;26145;-73
2021/05/13 02:35:31;;;;;;;2.77;1.60;;;;;;;13.81;49.67;99320.53;1768024;78;25436;-73
2021/05/13 02:37:58;;;;;;;8.78;2.25;;;;;;;13.74;49.82;99316.09;1794695;78;25594;-73
2021/05/13 02:40:24;;;;;;;3.62;1.67;;;;;;;13.70;49.94;99317.55;1789520;78;25518;-74
2021/05/13 02:42:50;;;;;;;3.05;1.80;;;;;;;13.68;50.00;99318.27;1787014;78;32816;-74
2021/05/13 02:45:16;;;;;;;6.67;1.50;;;;;;;13.64;50.15;99312.32;1787268;78;31119;-74
2021/05/13 02:47:42;;;;;;;4.95;1.90;;;;;;;13.60;50.25;99311.14;1785556;78;34652;-74
2021/05/13 02:50:12;;;;;;;2.95;1.30;;;;;;;13.55;50.27;99307.83;1786656;78;25786;-74
2021/05/13 02:52:38;;;;;;;6.62;1.90;;;;;;;13.55;50.49;99313.08;1785698;78;25576;-74
2021/05/13 02:55:07;;;;;;;5.53;1.70;;;;;;;13.55;50.58;99311.25;1789806;78;25681;-74
2021/05/13 02:57:33;;;;;;;3.72;1.82;;;;;;;13.55;50.66;99307.31;1786619;78;26402;-74
2021/05/13 03:02:33;;;;;;;3.52;1.62;;;;;;;13.50;50.80;99305.85;1678022;84;25710;-74
2021/05/13 03:04:59;;;;;;;5.05;2.10;;;;;;;13.47;50.96;99298.89;1678747;84;25748;-74
2021/05/13 03:07:25;;;;;;;4.15;1.60;;;;;;;13.45;51.05;99299.59;1677151;84;32841;-74
2021/05/13 03:09:57;;;;;;;3.85;1.40;;;;;;;13.43;51.08;99293.26;1680144;84;31251;-73
2021/05/13 03:12:18;;;;;;;4.25;1.87;;;;;;;13.41;51.23;99296.59;1675014;84;25668;-74
2021/05/13 03:14:45;;;;;;;7.37;2.55;;;;;;;13.39;51.33;99296.50;1675929;84;32407;-74
2021/05/13 03:17:11;;;;;;;2.80;1.62;;;;;;;13.37;51.41;99279.67;1678877;84;25522;-74
2021/05/13 03:19:44;;;;;;;6.75;1.87;;;;;;;13.36;51.55;99287.73;1678890;84;32856;-74
2021/05/13 03:22:11;;;;;;;9.15;2.00;;;;;;;13.34;51.60;99282.72;1677961;84;25716;-74
2021/05/13 03:24:47;;;;;;;1.85;1.35;;;;;;;13.31;51.65;99284.42;1677183;84;25670;-74
2021/05/13 03:29:53;;;;;;;7.60;1.80;;;;;;;13.28;51.88;99279.08;1678121;84;25673;-74
2021/05/13 03:32:19;;;;;;;3.72;1.50;;;;;;;13.25;51.94;99281.30;1680932;84;25563;-74
2021/05/13 03:34:44;;;;;;;7.20;1.82;;;;;;;13.25;52.07;99273.42;1677127;84;31248;-74
2021/05/13 03:37:11;;;;;;;5.08;1.65;;;;;;;13.25;52.15;99278.67;1680041;84;34794;-74
2021/05/13 03:39:37;;;;;;;4.92;1.92;;;;;;;13.23;52.25;99277.59;1722393;78;25698;-74
2021/05/13 03:42:03;;;;;;;4.28;1.60;;;;;;;13.24;52.41;99273.94;1791897;78;25711;-74
2021/05/13 03:44:29;;;;;;;6.83;1.60;;;;;;;13.27;52.40;99272.75;1790298;78;25597;-74
2021/05/13 03:46:55;;;;;;;3.70;1.72;;;;;;;13.31;52.50;99264.73;1783777;78;31180;-74
2021/05/13 03:49:20;;;;;;;3.05;1.85;;;;;;;13.32;52.55;99261.92;1785508;78;36020;-74
2021/05/13 03:51:46;;;;;;;5.40;2.00;;;;;;;13.38;52.48;99258.16;1792261;78;32592;-74
2021/05/13 03:54:12;;;;;;;2.05;1.50;;;;;;;13.35;52.38;99263.32;1786481;78;25589;-74
2021/05/13 03:56:38;;;;;;;3.45;1.95;;;;;;;13.37;52.49;99263.92;1790990;78;32804;-74
2021/05/13 03:59:14;;;;;;;5.08;1.95;;;;;;;13.40;52.53;99260.88;1785546;78;30586;-74
2021/05/13 04:04:07;;;;;;;3.65;2.10;;;;;;;13.44;52.47;99256.00;1787291;78;25651;-74
2021/05/13 04:06:33;;;;;;;3.25;1.87;;;;;;;13.46;52.51;99256.09;1789310;78;25618;-73
2021/05/13 04:08:59;;;;;;;3.10;1.80;;;;;;;13.49;52.53;99254.34;1789202;78;32823;-74
2021/05/13 04:11:25;;;;;;;5.05;1.65;;;;;;;13.51;52.54;99252.32;1787380;78;30238;-73
2021/05/13 04:13:51;;;;;;;11.95;2.22;;;;;;;13.54;52.54;99254.52;1786707;78;34603;-74
2021/05/13 04:16:26;;;;;;;9.33;2.10;;;;;;;13.58;52.57;99256.20;1789033;78;25564;-74
2021/05/13 04:18:45;;;;;;;5.55;1.82;;;;;;;13.60;52.62;99252.07;1788504;78;25609;-74
2021/05/13 04:21:11;;;;;;;3.33;1.60;;;;;;;13.64;52.56;99246.67;1787013;78;32765;-74
2021/05/13 04:23:36;;;;;;;7.58;2.20;;;;;;;13.67;52.53;99248.39;1786769;78;31725;-74
2021/05/13 04:26:02;;;;;;;3.62;2.15;;;;;;;13.72;52.58;99239.85;1791116;78;35174;-75
2021/05/13 04:28:28;;;;;;;5.67;2.05;;;;;;;13.76;52.49;99241.05;1790407;78;32261;-74
2021/05/13 04:30:54;;;;;;;6.08;2.00;;;;;;;13.80;52.36;99241.42;1782455;78;25512;-74
2021/05/13 04:33:19;;;;;;;3.05;1.95;;;;;;;13.84;52.32;99241.30;1787137;78;32702;-73
2021/05/13 04:35:45;;;;;;;8.95;2.17;;;;;;;13.87;52.37;99242.98;1788996;78;31202;-73
2021/05/13 04:38:15;;;;;;;5.20;1.90;;;;;;;13.87;52.23;99245.61;1785988;78;25145;-74
2021/05/13 04:40:40;;;;;;;7.62;1.90;;;;;;;13.89;52.30;99242.78;1787622;78;25558;-74
2021/05/13 04:43:05;;;;;;;4.25;2.10;;;;;;;13.93;52.16;99230.81;1792992;78;25647;-74
2021/05/13 04:45:31;;;;;;;4.00;1.50;;;;;;;13.98;52.08;99237.55;1789730;78;32708;-74
2021/05/13 04:50:23;;;;;;;6.12;2.25;;;;;;;13.98;51.96;99223.89;1788802;78;35116;-74
2021/05/13 04:52:52;;;;;;;7.33;2.10;;;;;;;14.01;51.94;99223.98;1788600;78;25755;-74
2021/05/13 04:55:17;;;;;;;6.60;1.60;;;;;;;14.02;51.91;99221.63;1788926;78;25554;-74
2021/05/13 04:57:43;;;;;;;3.70;2.30;;;;;;;14.03;51.91;99219.32;1791405;78;33193;-73
2021/05/13 05:00:12;;;;;;;4.12;1.98;;;;;;;14.05;51.85;99214.66;1785661;78;31186;-74
2021/05/13 05:02:38;;;;;;;7.70;2.10;;;;;;;14.10;52.03;99214.79;1785560;78;25535;-74
2021/05/13 05:05:06;;;;;;;4.20;2.52;;;;;;;14.17;52.01;99212.91;1790519;78;25198;-74
2021/05/13 05:07:32;;;;;;;5.53;2.50;;;;;;;14.23;51.88;99209.13;1788652;78;26402;-74
2021/05/13 05:09:58;;;;;;;4.17;2.17;;;;;;;14.26;51.58;99216.58;1787452;78;32685;-74
2021/05/13 05:12:23;;;;;;;4.08;1.75;;;;;;;14.30;51.58;99208.56;1790371;78;31098;-73
2021/05/13 05:14:49;;;;;;;7.58;2.67;;;;;;;14.33;51.35;99202.36;1789159;78;34699;-73
2021/05/13 05:17:15;;;;;;;2.77;2.10;;;;;;;14.36;51.28;99198.48;1790226;78;32467;-74
2021/05/13 05:19:41;;;;;;;9.13;2.10;;;;;;;14.38;51.26;99196.45;1788183;78;25483;-74
2021/05/13 05:22:07;;;;;;;6.10;2.25;;;;;;;14.43;51.08;99197.89;1779904;78;25170;-74
2021/05/13 05:24:34;;;;;;;5.58;2.12;;;;;;;14.46;51.05;99193.53;1789254;78;31173;-74
2021/05/13 05:27:00;;;;;;;5.33;2.00;;;;;;;14.51;50.99;99197.59;1786283;78;25586;-74
2021/05/13 05:29:26;;;;;;;7.45;2.10;;;;;;;14.56;51.02;99195.14;1785723;78;32326;-74
2021/05/13 05:31:52;;;;;;;9.58;2.40;;;;;;;14.65;51.02;99197.80;1785943;78;26224;-74
2021/05/13 05:34:18;;;;;;;4.58;1.80;;;;;;;14.69;51.01;99187.63;1789959;78;32798;-74
2021/05/13 05:36:44;;;;;;;7.72;1.95;;;;;;;14.76;50.89;99195.42;1792887;78;32368;-74
2021/05/13 05:39:10;;;;;;;8.28;2.17;;;;;;;14.81;50.87;99194.25;1790599;78;34662;-74
2021/05/13 05:41:35;;;;;;;9.30;2.35;;;;;;;14.83;51.01;99187.75;1784848;78;32243;-74
2021/05/13 05:44:01;;;;;;;8.75;2.20;;;;;;;14.90;50.84;99186.88;1789146;78;25595;-74
2021/05/13 05:46:27;;;;;;;6.17;1.70;;;;;;;14.94;50.74;99191.45;1785880;78;33159;-74
2021/05/13 05:48:55;;;;;;;4.30;1.70;;;;;;;14.99;50.71;99190.28;1785700;78;31267;-74
2021/05/13 05:51:20;;;;;;;10.25;1.90;;;;;;;15.03;50.66;99184.88;1790811;78;26463;-74
2021/05/13 05:53:46;;;;;;;4.37;1.77;;;;;;;15.10;50.54;99175.56;1789220;78;32318;-74
2021/05/13 05:56:12;;;;;;;3.65;1.80;;;;;;;15.17;50.52;99176.78;1786765;78;25715;-74
2021/05/13 05:58:38;;;;;;;12.75;2.10;;;;;;;15.11;50.51;99164.00;1781432;78;32815;-74
2021/05/13 06:01:03;;;;;;;5.60;2.35;;;;;;;15.29;50.61;99178.42;1785452;78;31256;-74
2021/05/13 06:03:29;;;;;;;10.70;2.00;;;;;;;15.38;50.57;99178.11;1782570;78;35356;-73
2021/05/13 06:05:55;;;;;;;5.35;1.95;;;;;;;15.47;50.46;99179.41;1787491;78;32214;-74
2021/05/13 06:08:21;;;;;;;6.72;2.02;;;;;;;15.52;50.53;99182.96;1784705;78;25736;-74
2021/05/13 06:10:46;;;;;;;7.47;3.25;;;;;;;15.62;50.37;99173.69;1790105;78;33930;-74
2021/05/13 06:13:12;;;;;;;8.23;2.12;;;;;;;15.69;50.27;99171.27;1789560;78;31964;-74
2021/05/13 06:15:38;;;;;;;9.78;2.47;;;;;;;15.86;50.10;99179.30;1790712;78;34798;-74
2021/05/13 06:18:05;;;;;;;11.57;2.52;;;;;;;15.86;50.10;99179.30;1785411;78;32237;-74
2021/05/13 06:20:33;;;;;;;5.70;2.25;;;;;;;15.91;49.69;99175.98;1788054;78;26326;-74
2021/05/13 06:22:59;;;;;;;10.05;3.52;;;;;;;15.97;49.67;99169.80;1785305;78;25553;-74
2021/05/13 06:25:27;;;;;;;6.12;2.47;;;;;;;16.01;49.60;99172.77;1786286;78;31093;-74
2021/05/13 06:27:53;;;;;;;10.48;2.30;;;;;;;16.09;49.58;99173.73;1784625;78;25495;-74
2021/05/13 06:30:21;;;;;;;9.85;2.40;;;;;;;16.13;49.54;99180.16;1783885;78;25583;-74
2021/05/13 06:32:48;;;;;;;18.50;2.85;;;;;;;16.17;49.34;99178.66;1785152;78;25501;-74
2021/05/13 06:35:17;;;;;;;9.25;1.92;;;;;;;16.20;49.33;99175.06;1781893;78;25584;-74
2021/05/13 06:37:44;;;;;;;23.10;2.45;;;;;;;16.25;49.38;99174.35;1790466;78;25641;-74
2021/05/13 06:40:11;;;;;;;6.28;2.35;;;;;;;16.29;49.17;99168.12;1786551;78;25684;-74
2021/05/13 06:42:37;;;;;;;7.03;2.50;;;;;;;16.31;48.99;99160.75;1786280;78;26470;-73
2021/05/13 06:45:08;;;;;;;11.22;2.27;;;;;;;16.33;49.15;99156.85;1779196;78;25957;-73
2021/05/13 06:47:34;;;;;;;6.22;2.50;;;;;;;16.38;49.23;99155.64;1782692;78;25271;-71
2021/05/13 06:50:00;;;;;;;10.03;2.33;;;;;;;16.45;49.19;99146.30;1788842;78;31205;-71
2021/05/13 06:52:26;;;;;;;11.75;2.08;;;;;;;16.52;49.13;99138.24;1784829;78;25431;-72
2021/05/13 06:54:52;;;;;;;8.88;1.90;;;;;;;16.58;49.19;99144.69;1783795;78;32387;-71
2021/05/13 06:57:18;;;;;;;13.18;2.67;;;;;;;16.63;48.96;99143.47;1784073;78;26006;-71
2021/05/13 06:59:45;;;;;;;11.43;2.90;;;;;;;16.70;49.00;99139.92;1786449;78;33015;-72
2021/05/13 07:02:12;;;;;;;7.25;2.60;;;;;;;16.77;48.74;99142.70;1789309;78;25705;-73
2021/05/13 07:04:38;;;;;;;16.80;3.30;;;;;;;16.78;48.53;99140.89;1781917;78;25256;-73
2021/05/13 07:07:04;;;;;;;13.15;2.50;;;;;;;16.78;49.25;99137.73;1788044;78;25593;-72
2021/05/13 07:09:30;;;;;;;3.55;1.70;;;;;;;16.92;48.90;99136.13;1787852;78;25665;-73
2021/05/13 07:11:55;;;;;;;16.23;2.62;;;;;;;17.00;47.28;99131.27;1789704;78;32770;-74
2021/05/13 07:14:23;;;;;;;6.15;2.62;;;;;;;17.06;48.72;99136.91;1783309;78;31664;-74
2021/05/13 07:16:49;;;;;;;10.18;3.10;;;;;;;17.17;48.52;99134.45;1786288;78;25475;-75
2021/05/13 07:19:16;;;;;;;7.08;2.50;;;;;;;17.29;48.64;99133.84;1791177;78;25164;-74
2021/05/13 07:21:42;;;;;;;5.05;1.87;;;;;;;17.40;48.34;99130.33;1787835;78;25496;-73
2021/05/13 07:24:09;;;;;;;7.30;2.17;;;;;;;17.47;47.90;99128.86;1787176;78;32682;-74
2021/05/13 07:26:35;;;;;;;3.75;1.77;;;;;;;17.55;47.68;99128.98;1786688;78;25518;-75
2021/05/13 07:29:01;;;;;;;12.37;4.42;;;;;;;17.72;48.23;99128.44;1752770;78;25560;-74
2021/05/13 07:31:27;;;;;;;6.87;2.30;;;;;;;17.87;48.57;99126.55;1785644;78;32207;-75
2021/05/13 07:33:53;;;;;;;5.65;1.82;;;;;;;18.01;47.63;99121.75;1787526;78;25305;-75
2021/05/13 07:36:19;;;;;;;4.10;1.70;;;;;;;18.02;46.54;99125.45;1793435;78;25749;-72
2021/05/13 07:38:46;;;;;;;4.53;2.02;;;;;;;17.84;46.21;99105.90;1789255;78;31168;-72
2021/05/13 07:41:15;;;;;;;3.85;1.30;;;;;;;17.84;46.21;99105.90;1785110;78;25768;-73
2021/05/13 07:43:42;;;;;;;12.45;2.10;;;;;;;18.01;46.09;99121.22;1782100;78;25165;-75
2021/05/13 07:46:09;;;;;;;15.32;2.12;;;;;;;18.09;46.02;99126.63;1786861;78;25593;-76
2021/05/13 07:48:35;;;;;;;6.03;2.02;;;;;;;18.15;45.92;99124.31;1782633;78;25208;-76
2021/05/13 07:51:01;;;;;;;9.58;2.22;;;;;;;18.19;45.84;99124.87;1785586;78;25174;-75
2021/05/13 07:53:27;;;;;;;4.17;1.40;;;;;;;18.27;45.63;99121.02;1785669;78;26161;-75
2021/05/13 07:55:54;;;;;;;6.05;1.50;;;;;;;18.33;44.72;99119.23;1790445;78;32635;-75
2021/05/13 07:58:20;;;;;;;4.72;1.98;;;;;;;18.26;44.85;99108.84;1786615;78;25496;-74
2021/05/13 08:00:46;;;;;;;2.37;1.55;;;;;;;18.33;45.27;99109.97;1787389;78;33291;-75
2021/05/13 08:03:11;;;;;;;6.80;1.30;;;;;;;18.39;44.90;99105.83;1785560;78;31169;-72
2021/05/13 08:05:37;;;;;;;4.03;1.30;;;;;;;18.42;44.97;99099.25;1788820;78;34697;-73
2021/05/13 08:08:04;;;;;;;7.37;1.50;;;;;;;18.46;44.57;99101.66;1792075;78;32435;-73
2021/05/13 08:10:30;;;;;;;3.50;1.35;;;;;;;18.45;44.41;99100.59;1786458;78;26374;-73
2021/05/13 08:12:57;;;;;;;4.42;1.65;;;;;;;18.52;44.42;99099.34;1787740;78;25626;-73
2021/05/13 08:15:23;;;;;;;8.78;1.25;;;;;;;18.57;43.76;99091.98;1780949;78;25582;-73
2021/05/13 08:17:49;;;;;;;5.08;1.45;;;;;;;18.61;43.73;99094.42;1785800;78;25621;-74
2021/05/13 08:20:17;;;;;;;5.35;1.30;;;;;;;18.63;43.48;99097.10;1787812;78;25172;-74
2021/05/13 08:22:46;;;;;;;8.78;2.33;;;;;;;18.64;43.25;99098.69;1788309;78;25570;-73
2021/05/13 08:25:15;;;;;;;6.58;1.42;;;;;;;18.63;42.99;99100.25;1790478;78;25170;-73
2021/05/13 08:27:40;;;;;;;5.80;1.50;;;;;;;18.67;43.12;99099.25;1784179;78;25601;-72
2021/05/13 08:30:08;;;;;;;3.25;1.50;;;;;;;18.79;43.61;99094.09;1783401;78;34619;-72
2021/05/13 08:32:34;;;;;;;4.92;1.17;;;;;;;18.83;42.56;99095.20;1787610;78;26237;-72
2021/05/13 08:35:00;;;;;;;3.00;1.45;;;;;;;18.81;42.47;99091.20;1787612;78;25526;-72
2021/05/13 08:37:27;;;;;;;2.92;1.05;;;;;;;18.82;41.93;99080.88;1784108;78;32761;-73
2021/05/13 08:39:53;;;;;;;2.83;1.02;;;;;;;18.80;42.81;99079.82;1787436;78;25542;-73
2021/05/13 08:42:19;;;;;;;14.47;1.90;;;;;;;18.91;42.70;99076.75;1786187;78;30866;-73
2021/05/13 08:44:45;;;;;;;5.10;1.70;;;;;;;19.01;42.62;99082.11;1786438;78;25185;-73
2021/05/13 08:47:12;;;;;;;10.95;1.45;;;;;;;19.09;42.57;99080.86;1787796;78;25687;-72
2021/05/13 08:49:42;;;;;;;3.05;1.55;;;;;;;19.16;42.13;99086.75;1789531;78;25597;-72
2021/05/13 08:52:16;;;;;;;3.05;1.15;;;;;;;19.16;42.02;99081.98;1785727;78;25208;-73
2021/05/13 08:54:54;;;;;;;4.87;1.27;;;;;;;19.22;42.22;99076.99;1790791;78;25154;-73
2021/05/13 08:57:21;;;;;;;7.12;1.65;;;;;;;19.28;42.06;99078.09;1786056;78;25593;-71
2021/05/13 08:59:47;;;;;;;12.43;1.57;;;;;;;19.25;41.77;99064.56;1784621;78;25527;-70
2021/05/13 09:02:15;;;;;;;6.70;1.62;;;;;;;19.34;41.89;99068.33;1791413;78;25699;-72
2021/05/13 09:04:48;;;;;;;7.42;1.35;;;;;;;19.40;41.37;99062.56;1786472;78;25629;-71
2021/05/13 09:07:24;;;;;;;4.65;1.40;;;;;;;19.47;41.46;99064.45;1786094;78;25196;-71
2021/05/13 09:10:09;;;;;;;13.50;1.50;;;;;;;19.59;41.63;99063.74;1790314;78;25602;-71
2021/05/13 09:12:48;;;;;;;3.70;1.27;;;;;;;19.71;41.09;99060.38;1785375;78;25580;-74
2021/05/13 09:15:22;;;;;;;6.83;1.50;;;;;;;19.69;40.53;99065.67;1789329;78;25582;-71
2021/05/13 09:18:01;;;;;;;6.30;1.55;;;;;;;19.73;40.60;99064.91;1791334;78;25127;-73
2021/05/13 09:20:37;;;;;;;6.78;2.00;;;;;;;19.90;41.01;99062.60;1789274;78;25185;-73
2021/05/13 09:23:26;;;;;;;7.33;1.72;;;;;;;20.01;40.87;99054.16;1782627;78;25180;-72
2021/05/13 09:26:11;;;;;;;6.15;1.40;;;;;;;20.10;40.81;99053.39;1789408;78;25630;-73
2021/05/13 09:28:41;;;;;;;9.70;3.67;;;;;;;20.29;40.62;99051.61;1788903;78;25505;-71
2021/05/13 09:31:07;;;;;;;4.47;1.70;;;;;;;20.26;39.80;99047.61;1789461;78;25619;-72
2021/05/13 09:33:38;;;;;;;8.98;3.25;;;;;;;19.92;38.65;99046.70;1791012;78;25793;-70
2021/05/13 09:36:25;;;;;;;5.67;1.37;;;;;;;19.77;40.27;99045.30;1782497;78;25592;-74
2021/05/13 09:38:52;;;;;;;5.72;1.40;;;;;;;19.93;40.46;99044.31;1788374;78;26264;-73
2021/05/13 09:41:34;;;;;;;3.40;1.10;;;;;;;20.12;40.06;99038.02;1781272;78;25258;-73
2021/05/13 09:44:01;;;;;;;6.83;1.05;;;;;;;20.23;39.81;99038.06;1782761;78;25649;-74
2021/05/13 09:46:36;;;;;;;3.92;1.10;;;;;;;20.34;39.65;99040.47;1763591;78;25693;-71
2021/05/13 09:49:04;;;;;;;3.37;1.12;;;;;;;20.40;39.17;99035.44;1779685;78;25188;-74
2021/05/13 09:51:36;;;;;;;3.80;1.12;;;;;;;20.46;39.24;99038.92;1778309;78;25793;-74
2021/05/13 09:54:17;;;;;;;4.70;1.30;;;;;;;20.51;38.90;99022.19;1764910;78;25699;-74
2021/05/13 09:56:50;;;;;;;3.05;1.12;;;;;;;20.36;38.80;99016.34;1784763;78;25602;-74
2021/05/13 09:59:29;;;;;;;7.97;1.27;;;;;;;20.49;39.17;99014.51;1785744;78;25444;-73
2021/05/13 10:02:10;;;;;;;4.93;1.00;;;;;;;20.67;39.17;99012.42;1767783;78;25238;-75
2021/05/13 10:04:35;;;;;;;4.05;0.88;;;;;;;20.79;38.93;99004.47;1786866;78;25516;-76
2021/05/13 10:07:01;;;;;;;9.40;1.60;;;;;;;20.90;38.58;99002.61;1783746;78;33445;-76
2021/05/13 10:09:27;;;;;;;2.95;1.00;;;;;;;20.98;38.22;98991.95;1792499;78;31456;-76
2021/05/13 10:11:58;;;;;;;6.55;1.47;;;;;;;21.09;38.23;98994.90;1788654;78;25192;-73
2021/05/13 10:14:27;;;;;;;6.55;1.35;;;;;;;21.16;37.99;98986.64;1787869;78;25138;-72
2021/05/13 10:16:56;;;;;;;4.15;1.10;;;;;;;21.20;37.13;98985.84;1789024;78;25677;-72
2021/05/13 10:19:32;;;;;;;4.97;0.88;;;;;;;21.15;35.53;98984.52;1784715;78;25603;-72
2021/05/13 10:22:01;;;;;;;7.45;1.00;;;;;;;21.15;36.31;98993.03;1787455;78;25855;-72
2021/05/13 10:24:28;;;;;;;3.87;0.80;;;;;;;21.18;35.93;98994.61;1786940;78;26209;-73
2021/05/13 10:26:53;;;;;;;2.62;1.00;;;;;;;21.28;35.88;98984.50;1788833;78;25734;-74
2021/05/13 10:29:26;;;;;;;4.85;1.00;;;;;;;21.33;35.70;98983.14;1794746;78;26137;-74
2021/05/13 10:32:16;;;;;;;3.47;1.15;;;;;;;21.41;35.11;98981.83;1789994;78;25603;-73
2021/05/13 10:34:53;;;;;;;3.70;1.20;;;;;;;21.38;34.86;98977.84;1790534;78;25730;-74
2021/05/13 10:37:38;;;;;;;5.92;1.17;;;;;;;21.45;35.30;98986.87;1790773;78;25580;-74
2021/05/13 10:40:24;;;;;;;1.92;1.05;;;;;;;21.58;35.10;98970.36;1786267;78;25666;-74
2021/05/13 10:43:06;;;;;;;5.42;1.30;;;;;;;21.39;34.02;98964.83;1781226;78;25511;-74
2021/05/13 10:45:47;;;;;;;4.92;1.25;;;;;;;21.46;34.81;98968.52;1784629;78;25151;-73
2021/05/13 10:48:26;;;;;;;2.83;0.80;;;;;;;21.52;35.20;98966.64;1784972;78;25675;-71
2021/05/13 10:51:06;;;;;;;6.27;1.03;;;;;;;21.65;34.98;98954.88;1786458;78;25763;-73
2021/05/13 10:53:48;;;;;;;8.05;1.30;;;;;;;21.77;34.81;98961.75;1783469;78;26047;-72
2021/05/13 10:56:35;;;;;;;4.92;0.78;;;;;;;21.83;34.10;98957.48;1791467;78;25840;-74
2021/05/13 10:59:09;;;;;;;3.30;0.80;;;;;;;21.82;33.77;98951.88;1782206;78;26611;-71
2021/05/13 11:01:50;;;;;;;3.58;0.80;;;;;;;;;;1785313;78;25720;-72
2021/05/13 11:04:29;;;;;;;6.35;1.00;;;;;;;22.04;33.96;98954.16;1784680;78;26132;-73
2021/05/13 11:07:06;;;;;;;6.42;0.80;;;;;;;22.12;34.07;98952.78;1783607;78;26130;-73
2021/05/13 11:09:47;;;;;;;5.92;1.00;;;;;;;22.19;34.25;98943.20;1781534;78;26338;-73
2021/05/13 11:12:39;;;;;;;8.13;1.55;;;;;;;22.15;34.19;98950.39;1780497;78;25177;-72
2021/05/13 11:17:54;;;;;;;9.03;1.20;;;;;;;22.30;34.48;98948.17;1780260;78;25645;-75
2021/05/13 11:20:48;;;;;;;3.98;0.90;;;;;;;22.22;34.12;98946.10;1785521;78;25586;-74
2021/05/13 11:23:21;;;;;;;7.75;0.90;;;;;;;22.05;33.73;98941.13;1786664;78;25636;-73
2021/05/13 11:26:02;;;;;;;3.47;0.80;;;;;;;22.17;33.48;98933.58;1785851;78;25606;-72
2021/05/13 11:28:50;;;;;;;4.03;1.00;;;;;;;22.24;33.31;98931.98;1783657;78;25227;-74
2021/05/13 11:31:20;;;;;;;3.17;1.27;;;;;;;22.39;33.59;98928.41;1781313;78;25597;-73
2021/05/13 11:33:52;;;;;;;6.33;1.02;;;;;;;22.46;33.29;98920.91;1788474;78;25545;-74
2021/05/13 11:36:37;;;;;;;6.00;0.95;;;;;;;22.59;33.34;98930.13;1767405;78;26098;-74
2021/05/13 11:39:10;;;;;;;5.08;1.20;;;;;;;22.60;32.43;98924.51;1787035;78;25693;-74
2021/05/13 11:41:35;;;;;;;6.15;0.90;;;;;;;22.62;31.88;98925.58;1786118;78;25313;-73
2021/05/13 11:44:02;;;;;;;3.95;1.10;;;;;;;22.65;32.49;98922.89;1789087;78;44338;-72
2021/05/13 11:46:29;;;;;;;2.70;0.90;;;;;;;22.73;32.52;98923.08;1789129;78;25501;-71
2021/05/13 11:48:56;;;;;;;2.92;1.00;;;;;;;22.85;32.13;98913.91;1785981;78;25554;-70
2021/05/13 11:51:28;;;;;;;4.12;1.20;;;;;;;22.84;30.19;98913.12;1786456;78;25517;-71
2021/05/13 11:54:00;;;;;;;4.53;1.20;;;;;;;22.71;31.94;98915.11;1783972;78;25627;-71
2021/05/13 11:56:29;;;;;;;5.87;1.30;;;;;;;22.91;32.59;98911.44;1788996;78;26559;-73
2021/05/13 11:59:10;;;;;;;7.92;1.02;;;;;;;23.09;31.52;98914.75;1771668;78;32662;-74